createdAt,value
2023-05-19T00:00:47.504Z,16.60
2023-05-19T00:04:14.678Z,16.60
2023-05-19T00:07:40.558Z,16.50
2023-05-19T00:11:06.131Z,16.50
2023-05-19T00:14:31.753Z,16.40
2023-05-19T00:17:58.152Z,16.40
2023-05-19T00:21:23.400Z,16.30
2023-05-19T00:24:49.466Z,16.30
2023-05-19T00:28:13.762Z,16.20
2023-05-19T00:31:38.500Z,16.20
2023-05-19T00:35:03.507Z,16.20
2023-05-19T00:38:27.052Z,16.20
2023-05-19T00:41:50.571Z,16.10
2023-05-19T00:45:14.190Z,16.20
2023-05-19T00:48:37.896Z,16.20
2023-05-19T00:52:03.324Z,16.20
2023-05-19T00:55:32.327Z,16.20
2023-05-19T00:58:56.431Z,16.20
2023-05-19T01:02:20.001Z,16.20
2023-05-19T01:05:44.928Z,16.10
2023-05-19T01:09:09.876Z,16.10
2023-05-19T01:12:33.499Z,16.10
2023-05-19T01:16:07.726Z,16.10
2023-05-19T01:19:56.335Z,16.10
2023-05-19T01:23:36.720Z,16.10
2023-05-19T01:27:30.021Z,16.10
2023-05-19T01:30:59.529Z,16.00
2023-05-19T01:34:25.281Z,16.00
2023-05-19T01:37:50.912Z,16.00
2023-05-19T01:41:15.769Z,16.00
2023-05-19T01:44:39.844Z,16.00
2023-05-19T01:48:09.907Z,16.00
2023-05-19T01:51:35.728Z,16.00
2023-05-19T01:54:59.230Z,16.00
2023-05-19T01:58:35.122Z,16.00
2023-05-19T02:02:02.866Z,16.00
2023-05-19T02:05:39.298Z,16.00
2023-05-19T02:09:13.098Z,15.90
2023-05-19T02:12:40.401Z,15.80
2023-05-19T02:16:07.112Z,15.80
2023-05-19T02:19:35.227Z,15.80
2023-05-19T02:23:00.348Z,15.80
2023-05-19T02:26:23.867Z,15.80
2023-05-19T02:29:47.380Z,15.80
2023-05-19T02:33:12.236Z,15.80
2023-05-19T02:36:37.619Z,15.80
2023-05-19T02:40:02.683Z,15.80
2023-05-19T02:43:26.981Z,15.80
2023-05-19T02:46:50.927Z,15.90
2023-05-19T02:50:14.882Z,15.80
2023-05-19T02:53:38.512Z,15.80
2023-05-19T02:57:03.460Z,15.70
2023-05-19T03:00:27.105Z,15.60
2023-05-19T03:03:51.039Z,15.60
2023-05-19T03:07:15.559Z,15.50
2023-05-19T03:10:39.218Z,15.60
2023-05-19T03:14:04.148Z,15.60
2023-05-19T03:17:28.677Z,15.60
2023-05-19T03:20:53.855Z,15.60
2023-05-19T03:24:17.571Z,15.60
2023-05-19T03:27:41.271Z,15.60
2023-05-19T03:31:06.414Z,15.60
2023-05-19T03:34:35.414Z,15.60
2023-05-19T03:37:58.951Z,15.60
2023-05-19T03:41:22.801Z,15.60
2023-05-19T03:44:46.538Z,15.50
2023-05-19T03:48:11.752Z,15.50
2023-05-19T03:51:55.870Z,15.50
2023-05-19T03:55:34.573Z,15.40
2023-05-19T03:58:58.179Z,15.30
2023-05-19T04:02:21.871Z,15.30
2023-05-19T04:05:46.934Z,15.30
2023-05-19T04:09:14.902Z,15.30
2023-05-19T04:12:38.562Z,15.20
2023-05-19T04:16:02.475Z,15.20
2023-05-19T04:19:26.257Z,15.10
2023-05-19T04:22:53.517Z,15.10
2023-05-19T04:26:17.995Z,15.20
2023-05-19T04:29:41.821Z,15.20
2023-05-19T04:33:05.534Z,15.20
2023-05-19T04:36:29.194Z,15.20
2023-05-19T04:39:54.715Z,15.30
2023-05-19T04:43:22.224Z,15.30
2023-05-19T04:46:47.208Z,15.40
2023-05-19T04:50:12.866Z,15.60
2023-05-19T04:53:36.637Z,15.60
2023-05-19T04:57:04.392Z,15.70
2023-05-19T05:00:29.991Z,15.80
2023-05-19T05:04:02.159Z,15.90
2023-05-19T05:07:26.450Z,16.00
2023-05-19T05:10:52.297Z,16.20
2023-05-19T05:14:18.191Z,16.40
2023-05-19T05:17:43.922Z,16.50
2023-05-19T05:21:09.135Z,16.70
2023-05-19T05:24:33.526Z,16.90
2023-05-19T05:28:04.904Z,17.20
2023-05-19T05:31:31.403Z,17.40
2023-05-19T05:34:55.518Z,17.70
2023-05-19T05:38:19.307Z,18.00
2023-05-19T05:41:42.922Z,18.40
2023-05-19T05:45:09.625Z,18.90
2023-05-19T05:48:36.041Z,19.40
2023-05-19T05:52:06.155Z,19.80
2023-05-19T05:55:37.959Z,20.30
2023-05-19T05:59:04.658Z,20.60
2023-05-19T06:02:28.663Z,21.10
2023-05-19T06:05:55.961Z,21.30
2023-05-19T06:09:19.992Z,21.70
2023-05-19T06:12:44.210Z,22.20
2023-05-19T06:16:09.197Z,22.70
2023-05-19T06:19:37.212Z,23.40
2023-05-19T06:23:02.458Z,23.90
2023-05-19T06:26:27.081Z,24.50
2023-05-19T06:29:51.389Z,25.00
2023-05-19T06:33:15.168Z,25.50
2023-05-19T06:36:40.393Z,26.10
2023-05-19T06:40:08.326Z,26.50
2023-05-19T06:43:33.438Z,26.90
2023-05-19T06:47:01.106Z,27.10
2023-05-19T06:50:25.218Z,27.20
2023-05-19T06:53:48.986Z,27.00
2023-05-19T06:57:14.072Z,26.70
2023-05-19T07:00:37.873Z,26.50
2023-05-19T07:04:03.296Z,26.40
2023-05-19T07:07:27.198Z,26.40
2023-05-19T07:10:52.770Z,26.40
2023-05-19T07:14:17.807Z,26.30
2023-05-19T07:17:42.106Z,25.90
2023-05-19T07:21:07.293Z,25.40
2023-05-19T07:24:31.629Z,24.80
2023-05-19T07:27:55.267Z,24.30
2023-05-19T07:31:20.177Z,23.80
2023-05-19T07:34:44.169Z,23.30
2023-05-19T07:38:08.303Z,22.80
2023-05-19T07:41:33.800Z,22.30
2023-05-19T07:44:57.880Z,22.00
2023-05-19T07:48:24.603Z,21.60
2023-05-19T07:51:48.157Z,21.30
2023-05-19T07:55:12.071Z,21.20
2023-05-19T07:58:35.627Z,20.90
2023-05-19T08:01:59.793Z,20.80
2023-05-19T08:05:25.634Z,20.60
2023-05-19T08:08:49.220Z,20.40
2023-05-19T08:12:12.759Z,20.30
2023-05-19T08:15:36.784Z,20.20
2023-05-19T08:19:02.483Z,20.10
2023-05-19T08:22:28.134Z,20.00
2023-05-19T08:25:52.449Z,19.90
2023-05-19T08:29:15.933Z,19.80
2023-05-19T08:32:39.434Z,19.70
2023-05-19T08:36:03.094Z,19.70
2023-05-19T08:39:28.483Z,19.70
2023-05-19T08:42:52.117Z,19.60
2023-05-19T08:46:16.824Z,19.50
2023-05-19T08:49:46.265Z,19.50
2023-05-19T08:53:32.588Z,19.50
2023-05-19T08:56:59.780Z,19.50
2023-05-19T09:00:24.636Z,19.50
2023-05-19T09:03:50.325Z,19.50
2023-05-19T09:07:15.843Z,19.60
2023-05-19T09:10:39.722Z,19.50
2023-05-19T09:14:04.803Z,19.50
2023-05-19T09:17:28.697Z,19.50
2023-05-19T09:20:52.348Z,19.50
2023-05-19T09:24:16.325Z,19.60
2023-05-19T09:27:40.379Z,19.60
2023-05-19T09:31:07.784Z,19.80
2023-05-19T09:34:31.344Z,19.70
2023-05-19T09:37:56.108Z,19.80
2023-05-19T09:41:20.033Z,19.80
2023-05-19T09:44:44.771Z,19.80
2023-05-19T09:48:10.053Z,19.80
2023-05-19T09:51:34.189Z,19.80
2023-05-19T09:54:58.728Z,19.90
2023-05-19T09:58:22.825Z,20.00
2023-05-19T10:01:47.954Z,20.00
2023-05-19T10:05:17.462Z,20.10
2023-05-19T10:08:42.643Z,20.20
2023-05-19T10:12:09.278Z,20.30
2023-05-19T10:15:40.840Z,20.30
2023-05-19T10:19:12.311Z,20.40
2023-05-19T10:22:37.589Z,20.30
2023-05-19T10:26:05.045Z,20.30
2023-05-19T10:29:33.222Z,20.30
2023-05-19T10:32:58.398Z,20.30
2023-05-19T10:36:45.886Z,20.30
2023-05-19T10:40:20.779Z,20.30
2023-05-19T10:43:57.043Z,20.20
2023-05-19T10:47:25.456Z,20.30
2023-05-19T10:50:49.730Z,20.20
2023-05-19T10:54:15.987Z,20.30
2023-05-19T10:57:56.659Z,20.20
2023-05-19T11:01:22.161Z,20.10
2023-05-19T11:04:51.997Z,20.00
2023-05-19T11:08:15.808Z,19.90
2023-05-19T11:11:50.434Z,19.80
2023-05-19T11:15:17.128Z,19.80
2023-05-19T11:18:40.934Z,19.90
2023-05-19T11:22:12.952Z,19.80
2023-05-19T11:25:45.280Z,19.80
2023-05-19T11:29:09.906Z,19.80
2023-05-19T11:32:39.106Z,19.80
2023-05-19T11:36:03.969Z,19.80
2023-05-19T11:39:28.603Z,19.80
2023-05-19T11:42:52.548Z,19.70
2023-05-19T11:46:16.406Z,19.70
2023-05-19T11:49:45.806Z,19.70
2023-05-19T11:53:12.483Z,19.60
2023-05-19T11:56:40.702Z,19.60
2023-05-19T12:00:09.329Z,19.60
2023-05-19T12:03:33.230Z,19.60
2023-05-19T12:06:58.449Z,19.60
2023-05-19T12:10:24.365Z,19.60
2023-05-19T12:13:50.763Z,19.60
2023-05-19T12:17:18.280Z,19.60
2023-05-19T12:20:42.991Z,19.60
2023-05-19T12:24:08.769Z,19.60
2023-05-19T12:27:37.535Z,19.60
2023-05-19T12:31:03.562Z,19.60
2023-05-19T12:34:27.331Z,19.70
2023-05-19T12:37:51.397Z,19.70
2023-05-19T12:41:16.770Z,19.70
2023-05-19T12:44:46.521Z,19.70
2023-05-19T12:48:15.926Z,19.70
2023-05-19T12:51:40.378Z,19.80
2023-05-19T12:55:06.979Z,19.80
2023-05-19T12:58:35.210Z,20.00
2023-05-19T13:01:59.936Z,20.10
2023-05-19T13:05:24.049Z,20.00
2023-05-19T13:08:48.359Z,20.00
2023-05-19T13:12:11.992Z,19.90
2023-05-19T13:15:41.291Z,19.90
2023-05-19T13:19:06.308Z,19.90
2023-05-19T13:22:30.040Z,19.90
2023-05-19T13:25:53.898Z,19.90
2023-05-19T13:29:17.663Z,19.90
2023-05-19T13:32:43.119Z,19.90
2023-05-19T13:36:07.647Z,20.00
2023-05-19T13:39:31.362Z,20.00
2023-05-19T13:42:55.152Z,19.90
2023-05-19T13:46:22.226Z,19.90
2023-05-19T13:49:52.227Z,19.90
2023-05-19T13:53:15.814Z,19.90
2023-05-19T13:56:40.483Z,19.80
2023-05-19T14:00:05.913Z,19.80
2023-05-19T14:03:38.619Z,19.90
2023-05-19T14:07:03.711Z,19.90
2023-05-19T14:10:27.840Z,19.90
2023-05-19T14:13:52.865Z,20.00
2023-05-19T14:17:16.858Z,20.30
2023-05-19T14:20:40.420Z,20.10
2023-05-19T14:24:06.105Z,20.20
2023-05-19T14:27:29.676Z,20.30
2023-05-19T14:30:53.280Z,20.30
2023-05-19T14:34:20.779Z,20.60
2023-05-19T14:37:44.363Z,20.30
2023-05-19T14:41:09.383Z,20.40
2023-05-19T14:44:33.659Z,20.40
2023-05-19T14:47:57.216Z,20.40
2023-05-19T14:51:20.928Z,20.40
2023-05-19T14:54:44.467Z,20.40
2023-05-19T14:58:23.600Z,20.40
2023-05-19T15:01:50.902Z,20.40
2023-05-19T15:05:14.548Z,20.30
2023-05-19T15:08:39.255Z,20.30
2023-05-19T15:12:02.845Z,20.20
2023-05-19T15:15:27.862Z,20.10
2023-05-19T15:18:51.989Z,20.20
2023-05-19T15:22:15.577Z,20.00
2023-05-19T15:25:39.316Z,20.00
2023-05-19T15:29:02.891Z,20.00
2023-05-19T15:32:27.923Z,20.00
2023-05-19T15:35:52.252Z,20.00
2023-05-19T15:39:15.850Z,20.00
2023-05-19T15:42:39.315Z,20.00
2023-05-19T15:46:05.160Z,20.10
2023-05-19T15:49:30.552Z,20.00
2023-05-19T15:52:54.101Z,20.00
2023-05-19T15:56:19.289Z,20.00
2023-05-19T15:59:42.812Z,20.00
2023-05-19T16:03:06.500Z,20.00
2023-05-19T16:06:31.809Z,20.00
2023-05-19T16:09:55.453Z,20.00
2023-05-19T16:13:19.161Z,20.00
2023-05-19T16:16:44.450Z,20.00
2023-05-19T16:20:10.020Z,20.00
2023-05-19T16:23:34.984Z,20.00
2023-05-19T16:26:58.722Z,20.10
2023-05-19T16:30:23.115Z,20.10
2023-05-19T16:33:47.195Z,20.10
2023-05-19T16:37:10.919Z,20.20
2023-05-19T16:40:36.103Z,20.20
2023-05-19T16:43:59.990Z,20.20
2023-05-19T16:47:23.604Z,20.20
2023-05-19T16:50:49.288Z,20.20
2023-05-19T16:54:12.939Z,20.20
2023-05-19T16:57:37.956Z,20.20
2023-05-19T17:01:01.612Z,20.20
2023-05-19T17:04:25.412Z,20.10
2023-05-19T17:07:48.934Z,20.20
2023-05-19T17:11:13.472Z,20.10
2023-05-19T17:14:38.508Z,20.10
2023-05-19T17:18:02.151Z,20.10
2023-05-19T17:21:25.743Z,20.10
2023-05-19T17:24:49.362Z,20.10
2023-05-19T17:28:12.898Z,20.00
2023-05-19T17:31:40.284Z,20.00
2023-05-19T17:35:05.412Z,20.10
2023-05-19T17:38:28.928Z,19.90
2023-05-19T17:41:52.554Z,19.80
2023-05-19T17:45:16.369Z,19.80
2023-05-19T17:48:41.303Z,19.70
2023-05-19T17:52:05.992Z,19.60
2023-05-19T17:55:31.371Z,19.50
2023-05-19T17:58:55.799Z,19.50
2023-05-19T18:02:19.945Z,19.40
2023-05-19T18:05:45.652Z,19.40
2023-05-19T18:09:13.107Z,19.30
2023-05-19T18:12:36.561Z,19.40
2023-05-19T18:16:00.206Z,19.20
2023-05-19T18:19:23.906Z,19.20
2023-05-19T18:22:49.064Z,19.10
2023-05-19T18:26:14.183Z,19.00
2023-05-19T18:29:37.932Z,19.00
2023-05-19T18:33:03.761Z,19.00
2023-05-19T18:36:27.855Z,18.90
2023-05-19T18:39:53.227Z,19.00
2023-05-19T18:43:16.720Z,18.70
2023-05-19T18:46:40.449Z,18.70
2023-05-19T18:50:04.145Z,18.60
2023-05-19T18:53:27.897Z,18.50
2023-05-19T18:56:53.222Z,18.50
2023-05-19T19:00:18.194Z,18.40
2023-05-19T19:03:41.908Z,18.30
2023-05-19T19:07:06.585Z,18.20
2023-05-19T19:10:33.162Z,18.10
2023-05-19T19:13:58.203Z,18.00
2023-05-19T19:17:21.930Z,17.90
2023-05-19T19:20:45.681Z,18.00
2023-05-19T19:24:09.211Z,17.80
2023-05-19T19:27:35.442Z,17.80
2023-05-19T19:31:00.435Z,17.80
2023-05-19T19:34:24.358Z,17.70
2023-05-19T19:37:47.954Z,17.70
2023-05-19T19:41:11.497Z,17.80
2023-05-19T19:44:35.222Z,17.70
2023-05-19T19:48:00.294Z,17.80
2023-05-19T19:51:24.410Z,18.10
2023-05-19T19:54:48.135Z,17.80
2023-05-19T19:58:11.906Z,17.70
2023-05-19T20:01:35.894Z,17.80
2023-05-19T20:05:02.239Z,17.80
2023-05-19T20:08:27.323Z,17.80
2023-05-19T20:11:51.056Z,17.80
2023-05-19T20:15:15.305Z,18.00
2023-05-19T20:18:39.494Z,17.70
2023-05-19T20:22:05.472Z,17.70
2023-05-19T20:25:29.364Z,17.70
2023-05-19T20:28:53.174Z,17.80
2023-05-19T20:32:16.749Z,17.80
2023-05-19T20:35:40.372Z,17.80
2023-05-19T20:39:06.996Z,17.70
2023-05-19T20:42:31.088Z,17.70
2023-05-19T20:45:54.912Z,17.80
2023-05-19T20:49:20.099Z,17.80
2023-05-19T20:52:44.066Z,17.80
2023-05-19T20:56:10.604Z,17.80
2023-05-19T20:59:34.914Z,17.80
2023-05-19T21:02:58.568Z,17.80
2023-05-19T21:06:22.731Z,17.90
2023-05-19T21:09:50.370Z,17.90
2023-05-19T21:13:15.729Z,17.90
2023-05-19T21:16:39.319Z,17.90
2023-05-19T21:20:03.740Z,17.90
2023-05-19T21:23:27.368Z,17.90
2023-05-19T21:26:51.460Z,17.80
2023-05-19T21:30:16.437Z,17.80
2023-05-19T21:33:40.057Z,17.80
2023-05-19T21:37:03.695Z,17.80
2023-05-19T21:40:27.417Z,17.80
2023-05-19T21:43:51.120Z,17.80
2023-05-19T21:47:18.413Z,17.70
2023-05-19T21:50:42.001Z,17.70
2023-05-19T21:54:05.667Z,17.70
2023-05-19T21:57:29.147Z,17.60
2023-05-19T22:00:56.064Z,17.60
2023-05-19T22:04:21.261Z,17.60
2023-05-19T22:07:46.201Z,17.50
2023-05-19T22:11:09.908Z,17.40
2023-05-19T22:14:33.824Z,17.30
2023-05-19T22:17:57.368Z,17.20
2023-05-19T22:21:22.472Z,17.10
2023-05-19T22:24:45.971Z,17.00
2023-05-19T22:28:09.488Z,16.90
2023-05-19T22:31:33.055Z,16.90
2023-05-19T22:34:56.636Z,16.70
2023-05-19T22:38:21.490Z,16.70
2023-05-19T22:41:45.403Z,16.60
2023-05-19T22:45:10.762Z,16.50
2023-05-19T22:48:34.377Z,16.50
2023-05-19T22:51:57.958Z,16.40
2023-05-19T22:55:23.047Z,16.40
2023-05-19T22:58:46.688Z,16.30
2023-05-19T23:02:10.313Z,16.30
2023-05-19T23:05:34.102Z,16.20
2023-05-19T23:09:03.406Z,16.20
2023-05-19T23:12:28.386Z,16.30
2023-05-19T23:15:51.883Z,16.30
2023-05-19T23:19:15.515Z,16.30
2023-05-19T23:22:39.179Z,16.30
2023-05-19T23:26:03.132Z,16.30
2023-05-19T23:29:28.220Z,16.30
2023-05-19T23:32:52.977Z,16.30
2023-05-19T23:36:17.693Z,16.30
2023-05-19T23:39:41.672Z,16.30
2023-05-19T23:43:05.327Z,16.30
2023-05-19T23:46:30.402Z,16.30
2023-05-19T23:49:54.288Z,16.30
2023-05-19T23:53:18.060Z,16.30
2023-05-19T23:56:41.608Z,16.30
